Beltana — VNFN — position and weather

sailwx.info

Track history (hours):
 
Tides and Currents Weather Stations Pressure Air Temp Water Temp Dewpoint Dewpoint Depression Visibility Wind Speed Wind Dir Waves Ship Positions

Beltana

Last reported at 2018-Jun-22 04:58 UTC. Time now 2018-Jun-22 13:30 UTC.
Position S 27°24' E 153°09'.

Length 31 m; draft 5 m.

Type: Tug. MMSI: 503354000.

Date/timePositionNaut miles runAvg speedWind from/ knotsBaromVisibWave heightAir tempDewpointWater temp
2018-Jun-22 04:58S 27°24' E 153°09'2 3.4
2018-Jun-22 04:15S 27°22' E 153°11'1 2.7
2018-Jun-22 03:51S 27°21' E 153°11'1 1.4
2018-Jun-22 03:21S 27°21' E 153°11'0 0.0
2018-Jun-22 03:00S 27°21' E 153°11'1 0.3
2018-Jun-21 22:48S 27°23' E 153°10'0 0.3
2018-Jun-21 22:24S 27°23' E 153°10'1 2.6
2018-Jun-21 22:00S 27°22' E 153°11'3 0.1
2018-Jun-20 20:32S 27°24' E 153°09'1 3.2
2018-Jun-20 20:06S 27°23' E 153°10'0 0.8
2018-Jun-20 19:45S 27°23' E 153°10'1 0.1
2018-Jun-20 06:11S 27°23' E 153°09'0 0.0
2018-Jun-20 05:56S 27°23' E 153°09'0 0.1
2018-Jun-20 04:59S 27°23' E 153°09'0 0.0
2018-Jun-19 23:50S 27°23' E 153°09'1 0.1
2018-Jun-19 15:59S 27°24' E 153°09'2 2.5
2018-Jun-19 15:08S 27°22' E 153°10'0 1.0
2018-Jun-19 14:51S 27°22' E 153°10'0 0.1
2018-Jun-19 14:18S 27°22' E 153°10'0 0.6
2018-Jun-19 13:52S 27°22' E 153°11'1 0.5
2018-Jun-19 11:02S 27°23' E 153°10'1 0.2
2018-Jun-19 06:10S 27°24' E 153°09'3 5.9
2018-Jun-19 05:44S 27°22' E 153°11'0 0.2
2018-Jun-19 05:18S 27°22' E 153°11'1 0.1
2018-Jun-18 19:15S 27°22' E 153°10'1 1.0
2018-Jun-18 18:44S 27°22' E 153°11'0 0.8
2018-Jun-18 18:25S 27°22' E 153°11'0 0.0
2018-Jun-18 17:54S 27°22' E 153°11'0 0.9
2018-Jun-18 17:21S 27°22' E 153°10'0 0.5
2018-Jun-18 17:00S 27°22' E 153°10'0 0.1
2018-Jun-18 16:28S 27°22' E 153°10'0 0.3
2018-Jun-18 15:58S 27°22' E 153°10'0 0.1
2018-Jun-18 15:12S 27°22' E 153°10'0 0.0
2018-Jun-18 14:59S 27°22' E 153°10'0 0.0
2018-Jun-18 14:30S 27°22' E 153°10'0 0.0
2018-Jun-18 13:58S 27°22' E 153°10'0 0.4
2018-Jun-18 13:23S 27°22' E 153°10'0 0.5
2018-Jun-18 13:00S 27°22' E 153°10'0 0.8
2018-Jun-18 12:29S 27°22' E 153°11'1 1.3
2018-Jun-18 11:52S 27°21' E 153°11'1 0.1
2018-Jun-18 04:12S 27°22' E 153°10'4 0.3
2018-Jun-17 14:33S 27°25' E 153°08'1 5.8
2018-Jun-17 14:24S 27°25' E 153°09'2 3.7
2018-Jun-17 13:57S 27°23' E 153°09'2 0.9
2018-Jun-17 11:51S 27°22' E 153°11'0 0.4
2018-Jun-17 10:54S 27°22' E 153°10'2 1.1
2018-Jun-17 08:42S 27°24' E 153°09'1 7.0
2018-Jun-17 08:30S 27°25' E 153°08'1 1.1
2018-Jun-17 07:14S 27°24' E 153°09'0 0.0
2018-Jun-17 05:14S 27°24' E 153°09'0 0.1
2018-Jun-17 04:00S 27°24' E 153°09'0 0.0
2018-Jun-16 16:17S 27°24' E 153°09'1 3.9
2018-Jun-16 16:00S 27°23' E 153°09'0 0.1
2018-Jun-16 15:30S 27°23' E 153°09'2 3.7
2018-Jun-16 14:57S 27°21' E 153°11'1 2.0
2018-Jun-16 14:30S 27°22' E 153°10'2 4.2
2018-Jun-16 14:00S 27°24' E 153°09'0 0.0
2018-Jun-16 13:24S 27°24' E 153°09'0 0.0
2018-Jun-16 13:00S 27°24' E 153°09'0 0.0
2018-Jun-16 12:30S 27°24' E 153°09'0 0.0
2018-Jun-16 11:18S 27°24' E 153°09'0 0.0
2018-Jun-16 10:48S 27°24' E 153°09'0 0.0
2018-Jun-16 08:27S 27°24' E 153°09'3 5.7
2018-Jun-16 08:00S 27°22' E 153°11'3 0.2
2018-Jun-15 20:38S 27°24' E 153°09'1 6.7
2018-Jun-15 20:30S 27°23' E 153°09'2 3.6
2018-Jun-15 20:00S 27°22' E 153°11'0 0.2
2018-Jun-15 19:30S 27°22' E 153°11'1 1.0
2018-Jun-15 18:56S 27°22' E 153°10'0 0.1
2018-Jun-15 18:26S 27°22' E 153°10'0 0.1
2018-Jun-15 17:56S 27°22' E 153°10'0 0.0
2018-Jun-15 15:50S 27°22' E 153°10'0 0.0
2018-Jun-15 15:26S 27°22' E 153°10'0 0.0
2018-Jun-15 14:59S 27°22' E 153°10'0 0.0
2018-Jun-15 14:29S 27°22' E 153°10'0 0.0
2018-Jun-15 13:59S 27°22' E 153°10'4 7.9
2018-Jun-15 13:30S 27°25' E 153°08'1 1.2
2018-Jun-15 12:54S 27°26' E 153°07'2 4.5
2018-Jun-15 12:30S 27°25' E 153°09'3 5.0
2018-Jun-15 11:56S 27°22' E 153°10'0 0.0
2018-Jun-15 11:29S 27°22' E 153°10'0 0.3
2018-Jun-15 11:00S 27°22' E 153°10'0 0.2
2018-Jun-15 10:28S 27°22' E 153°10'2 5.0
2018-Jun-15 10:00S 27°24' E 153°09'0 0.0
2018-Jun-15 07:46S 27°24' E 153°09'0 0.0
2018-Jun-15 07:25S 27°24' E 153°09'0 0.0
2018-Jun-15 06:58S 27°24' E 153°09'0 0.0
2018-Jun-14 21:01S 27°24' E 153°09'0 0.0
2018-Jun-14 20:47S 27°24' E 153°09'2 6.5
2018-Jun-14 20:30S 27°22' E 153°10'1 1.6
2018-Jun-14 20:01S 27°22' E 153°11'3 0.6
2018-Jun-14 15:31S 27°24' E 153°09'0 0.0
2018-Jun-14 15:25S 27°24' E 153°09'0 0.0
2018-Jun-14 10:58S 27°24' E 153°09'0 0.0
2018-Jun-14 10:25S 27°24' E 153°09'0 0.0
2018-Jun-14 05:43S 27°24' E 153°09'1 7.0
2018-Jun-14 05:30S 27°23' E 153°10'1 1.2
2018-Jun-14 05:00S 27°22' E 153°10'0 0.6
2018-Jun-14 04:30S 27°22' E 153°10'0 0.6
2018-Jun-14 04:00S 27°22' E 153°11'3 0.4
2018-Jun-13 21:39S 27°24' E 153°09'1 5.2
2018-Jun-13 21:31S 27°23' E 153°09'0 0.3
2018-Jun-13 21:01S 27°23' E 153°09'2 3.0
2018-Jun-13 20:31S 27°22' E 153°10'2 2.5
2018-Jun-13 19:37S 27°24' E 153°09'1 6.5
2018-Jun-13 19:30S 27°23' E 153°09'1 1.9
2018-Jun-13 18:56S 27°23' E 153°10'0 0.0
2018-Jun-13 18:29S 27°23' E 153°10'0 0.0
2018-Jun-13 17:59S 27°23' E 153°10'0 0.0
2018-Jun-13 17:29S 27°23' E 153°10'0 0.0
2018-Jun-13 16:56S 27°23' E 153°10'0 0.0
2018-Jun-13 16:29S 27°23' E 153°10'0 0.0
2018-Jun-13 15:56S 27°23' E 153°10'0 0.0
2018-Jun-13 15:29S 27°23' E 153°10'0 0.0
2018-Jun-13 14:59S 27°23' E 153°10'0 0.8
2018-Jun-13 14:30S 27°23' E 153°10'1 1.2
2018-Jun-13 14:00S 27°22' E 153°10'0 0.5
2018-Jun-13 13:12S 27°22' E 153°10'0 0.0
2018-Jun-13 11:57S 27°22' E 153°10'0 0.0
2018-Jun-13 09:43S 27°22' E 153°10'1 5.2
2018-Jun-13 09:30S 27°23' E 153°10'0 0.7
2018-Jun-13 09:00S 27°23' E 153°10'1 0.4
2018-Jun-13 06:55S 27°24' E 153°09'2 6.1
2018-Jun-13 06:30S 27°22' E 153°10'0 0.5
2018-Jun-13 06:00S 27°22' E 153°11'1 1.3
2018-Jun-13 05:30S 27°22' E 153°10'0 1.0
2018-Jun-13 05:00S 27°23' E 153°10'0 0.3
2018-Jun-13 04:30S 27°23' E 153°10'0 0.0
2018-Jun-13 03:51S 27°23' E 153°10'1 2.1
2018-Jun-13 03:29S 27°22' E 153°10'0 0.7
2018-Jun-13 03:00S 27°22' E 153°10'0 0.4
2018-Jun-13 02:28S 27°22' E 153°10'0 0.0
2018-Jun-13 01:22S 27°22' E 153°10'0 0.5
2018-Jun-13 00:41S 27°22' E 153°10'0 1.4
2018-Jun-13 00:28S 27°23' E 153°10'0 0.0
2018-Jun-12 23:41S 27°23' E 153°10'0 0.0
2018-Jun-12 23:30S 27°23' E 153°10'0 0.0
2018-Jun-12 23:00S 27°23' E 153°10'0 0.0
2018-Jun-12 22:24S 27°23' E 153°10'0 0.0
2018-Jun-12 21:55S 27°23' E 153°10'0 0.3
2018-Jun-12 21:30S 27°22' E 153°10'2 1.0
2018-Jun-12 19:41S 27°24' E 153°09'2 6.6
2018-Jun-12 19:26S 27°23' E 153°10'0 0.9
2018-Jun-12 19:00S 27°22' E 153°10'0 0.0
2018-Jun-12 13:45S 27°22' E 153°10'1 4.0
2018-Jun-12 13:28S 27°23' E 153°10'0 0.1
2018-Jun-12 12:57S 27°23' E 153°10'1 1.2
2018-Jun-12 12:25S 27°22' E 153°10'0 0.2
2018-Jun-12 11:19S 27°22' E 153°10'0 0.2
2018-Jun-12 11:00S 27°22' E 153°10'1 1.4
2018-Jun-12 10:26S 27°23' E 153°10'1 0.4
2018-Jun-12 07:26S 27°24' E 153°09'4 7.5
2018-Jun-12 06:55S 27°27' E 153°06'0 0.2
2018-Jun-12 05:34S 27°27' E 153°06'  
Track history (hours):
 
Tides and Currents Weather Stations Pressure Air Temp Water Temp Dewpoint Dewpoint Depression Visibility Wind Speed Wind Dir Waves Ship Positions

Beltana

Last reported at 2018-Jun-22 04:58 UTC. Time now 2018-Jun-22 13:30 UTC.
Position S 27°24' E 153°09'.

Length 31 m; draft 5 m.

Type: Tug. MMSI: 503354000.

Date/timePositionNaut miles runAvg speedWind from/ knotsBaromVisibWave heightAir tempDewpointWater temp
2018-Jun-22 04:58S 27°24' E 153°09'2 3.4
2018-Jun-22 04:15S 27°22' E 153°11'1 2.7
2018-Jun-22 03:51S 27°21' E 153°11'1 1.4
2018-Jun-22 03:21S 27°21' E 153°11'0 0.0
2018-Jun-22 03:00S 27°21' E 153°11'1 0.3
2018-Jun-21 22:48S 27°23' E 153°10'0 0.3
2018-Jun-21 22:24S 27°23' E 153°10'1 2.6
2018-Jun-21 22:00S 27°22' E 153°11'3 0.1
2018-Jun-20 20:32S 27°24' E 153°09'1 3.2
2018-Jun-20 20:06S 27°23' E 153°10'0 0.8
2018-Jun-20 19:45S 27°23' E 153°10'1 0.1
2018-Jun-20 06:11S 27°23' E 153°09'0 0.0
2018-Jun-20 05:56S 27°23' E 153°09'0 0.1
2018-Jun-20 04:59S 27°23' E 153°09'0 0.0
2018-Jun-19 23:50S 27°23' E 153°09'1 0.1
2018-Jun-19 15:59S 27°24' E 153°09'2 2.5
2018-Jun-19 15:08S 27°22' E 153°10'0 1.0
2018-Jun-19 14:51S 27°22' E 153°10'0 0.1
2018-Jun-19 14:18S 27°22' E 153°10'0 0.6
2018-Jun-19 13:52S 27°22' E 153°11'1 0.5
2018-Jun-19 11:02S 27°23' E 153°10'1 0.2
2018-Jun-19 06:10S 27°24' E 153°09'3 5.9
2018-Jun-19 05:44S 27°22' E 153°11'0 0.2
2018-Jun-19 05:18S 27°22' E 153°11'1 0.1
2018-Jun-18 19:15S 27°22' E 153°10'1 1.0
2018-Jun-18 18:44S 27°22' E 153°11'0 0.8
2018-Jun-18 18:25S 27°22' E 153°11'0 0.0
2018-Jun-18 17:54S 27°22' E 153°11'0 0.9
2018-Jun-18 17:21S 27°22' E 153°10'0 0.5
2018-Jun-18 17:00S 27°22' E 153°10'0 0.1
2018-Jun-18 16:28S 27°22' E 153°10'0 0.3
2018-Jun-18 15:58S 27°22' E 153°10'0 0.1
2018-Jun-18 15:12S 27°22' E 153°10'0 0.0
2018-Jun-18 14:59S 27°22' E 153°10'0 0.0
2018-Jun-18 14:30S 27°22' E 153°10'0 0.0
2018-Jun-18 13:58S 27°22' E 153°10'0 0.4
2018-Jun-18 13:23S 27°22' E 153°10'0 0.5
2018-Jun-18 13:00S 27°22' E 153°10'0 0.8
2018-Jun-18 12:29S 27°22' E 153°11'1 1.3
2018-Jun-18 11:52S 27°21' E 153°11'1 0.1
2018-Jun-18 04:12S 27°22' E 153°10'4 0.3
2018-Jun-17 14:33S 27°25' E 153°08'1 5.8
2018-Jun-17 14:24S 27°25' E 153°09'2 3.7
2018-Jun-17 13:57S 27°23' E 153°09'2 0.9
2018-Jun-17 11:51S 27°22' E 153°11'0 0.4
2018-Jun-17 10:54S 27°22' E 153°10'2 1.1
2018-Jun-17 08:42S 27°24' E 153°09'1 7.0
2018-Jun-17 08:30S 27°25' E 153°08'1 1.1
2018-Jun-17 07:14S 27°24' E 153°09'0 0.0
2018-Jun-17 05:14S 27°24' E 153°09'0 0.1
2018-Jun-17 04:00S 27°24' E 153°09'0 0.0
2018-Jun-16 16:17S 27°24' E 153°09'1 3.9
2018-Jun-16 16:00S 27°23' E 153°09'0 0.1
2018-Jun-16 15:30S 27°23' E 153°09'2 3.7
2018-Jun-16 14:57S 27°21' E 153°11'1 2.0
2018-Jun-16 14:30S 27°22' E 153°10'2 4.2
2018-Jun-16 14:00S 27°24' E 153°09'0 0.0
2018-Jun-16 13:24S 27°24' E 153°09'0 0.0
2018-Jun-16 13:00S 27°24' E 153°09'0 0.0
2018-Jun-16 12:30S 27°24' E 153°09'0 0.0
2018-Jun-16 11:18S 27°24' E 153°09'0 0.0
2018-Jun-16 10:48S 27°24' E 153°09'0 0.0
2018-Jun-16 08:27S 27°24' E 153°09'3 5.7
2018-Jun-16 08:00S 27°22' E 153°11'3 0.2
2018-Jun-15 20:38S 27°24' E 153°09'1 6.7
2018-Jun-15 20:30S 27°23' E 153°09'2 3.6
2018-Jun-15 20:00S 27°22' E 153°11'0 0.2
2018-Jun-15 19:30S 27°22' E 153°11'1 1.0
2018-Jun-15 18:56S 27°22' E 153°10'0 0.1
2018-Jun-15 18:26S 27°22' E 153°10'0 0.1
2018-Jun-15 17:56S 27°22' E 153°10'0 0.0
2018-Jun-15 15:50S 27°22' E 153°10'0 0.0
2018-Jun-15 15:26S 27°22' E 153°10'0 0.0
2018-Jun-15 14:59S 27°22' E 153°10'0 0.0
2018-Jun-15 14:29S 27°22' E 153°10'0 0.0
2018-Jun-15 13:59S 27°22' E 153°10'4 7.9
2018-Jun-15 13:30S 27°25' E 153°08'1 1.2
2018-Jun-15 12:54S 27°26' E 153°07'2 4.5
2018-Jun-15 12:30S 27°25' E 153°09'3 5.0
2018-Jun-15 11:56S 27°22' E 153°10'0 0.0
2018-Jun-15 11:29S 27°22' E 153°10'0 0.3
2018-Jun-15 11:00S 27°22' E 153°10'0 0.2
2018-Jun-15 10:28S 27°22' E 153°10'2 5.0
2018-Jun-15 10:00S 27°24' E 153°09'0 0.0
2018-Jun-15 07:46S 27°24' E 153°09'0 0.0
2018-Jun-15 07:25S 27°24' E 153°09'0 0.0
2018-Jun-15 06:58S 27°24' E 153°09'0 0.0
2018-Jun-14 21:01S 27°24' E 153°09'0 0.0
2018-Jun-14 20:47S 27°24' E 153°09'2 6.5
2018-Jun-14 20:30S 27°22' E 153°10'1 1.6
2018-Jun-14 20:01S 27°22' E 153°11'3 0.6
2018-Jun-14 15:31S 27°24' E 153°09'0 0.0
2018-Jun-14 15:25S 27°24' E 153°09'0 0.0
2018-Jun-14 10:58S 27°24' E 153°09'0 0.0
2018-Jun-14 10:25S 27°24' E 153°09'0 0.0
2018-Jun-14 05:43S 27°24' E 153°09'1 7.0
2018-Jun-14 05:30S 27°23' E 153°10'1 1.2
2018-Jun-14 05:00S 27°22' E 153°10'0 0.6
2018-Jun-14 04:30S 27°22' E 153°10'0 0.6
2018-Jun-14 04:00S 27°22' E 153°11'3 0.4
2018-Jun-13 21:39S 27°24' E 153°09'1 5.2
2018-Jun-13 21:31S 27°23' E 153°09'0 0.3
2018-Jun-13 21:01S 27°23' E 153°09'2 3.0
2018-Jun-13 20:31S 27°22' E 153°10'2 2.5
2018-Jun-13 19:37S 27°24' E 153°09'1 6.5
2018-Jun-13 19:30S 27°23' E 153°09'1 1.9
2018-Jun-13 18:56S 27°23' E 153°10'0 0.0
2018-Jun-13 18:29S 27°23' E 153°10'0 0.0
2018-Jun-13 17:59S 27°23' E 153°10'0 0.0
2018-Jun-13 17:29S 27°23' E 153°10'0 0.0
2018-Jun-13 16:56S 27°23' E 153°10'0 0.0
2018-Jun-13 16:29S 27°23' E 153°10'0 0.0
2018-Jun-13 15:56S 27°23' E 153°10'0 0.0
2018-Jun-13 15:29S 27°23' E 153°10'0 0.0
2018-Jun-13 14:59S 27°23' E 153°10'0 0.8
2018-Jun-13 14:30S 27°23' E 153°10'1 1.2
2018-Jun-13 14:00S 27°22' E 153°10'0 0.5
2018-Jun-13 13:12S 27°22' E 153°10'0 0.0
2018-Jun-13 11:57S 27°22' E 153°10'0 0.0
2018-Jun-13 09:43S 27°22' E 153°10'1 5.2
2018-Jun-13 09:30S 27°23' E 153°10'0 0.7
2018-Jun-13 09:00S 27°23' E 153°10'1 0.4
2018-Jun-13 06:55S 27°24' E 153°09'2 6.1
2018-Jun-13 06:30S 27°22' E 153°10'0 0.5
2018-Jun-13 06:00S 27°22' E 153°11'1 1.3
2018-Jun-13 05:30S 27°22' E 153°10'0 1.0
2018-Jun-13 05:00S 27°23' E 153°10'0 0.3
2018-Jun-13 04:30S 27°23' E 153°10'0 0.0
2018-Jun-13 03:51S 27°23' E 153°10'1 2.1
2018-Jun-13 03:29S 27°22' E 153°10'0 0.7
2018-Jun-13 03:00S 27°22' E 153°10'0 0.4
2018-Jun-13 02:28S 27°22' E 153°10'0 0.0
2018-Jun-13 01:22S 27°22' E 153°10'0 0.5
2018-Jun-13 00:41S 27°22' E 153°10'0 1.4
2018-Jun-13 00:28S 27°23' E 153°10'0 0.0
2018-Jun-12 23:41S 27°23' E 153°10'0 0.0
2018-Jun-12 23:30S 27°23' E 153°10'0 0.0
2018-Jun-12 23:00S 27°23' E 153°10'0 0.0
2018-Jun-12 22:24S 27°23' E 153°10'0 0.0
2018-Jun-12 21:55S 27°23' E 153°10'0 0.3
2018-Jun-12 21:30S 27°22' E 153°10'2 1.0
2018-Jun-12 19:41S 27°24' E 153°09'2 6.6
2018-Jun-12 19:26S 27°23' E 153°10'0 0.9
2018-Jun-12 19:00S 27°22' E 153°10'0 0.0
2018-Jun-12 13:45S 27°22' E 153°10'1 4.0
2018-Jun-12 13:28S 27°23' E 153°10'0 0.1
2018-Jun-12 12:57S 27°23' E 153°10'1 1.2
2018-Jun-12 12:25S 27°22' E 153°10'0 0.2
2018-Jun-12 11:19S 27°22' E 153°10'0 0.2
2018-Jun-12 11:00S 27°22' E 153°10'1 1.4
2018-Jun-12 10:26S 27°23' E 153°10'1 0.4
2018-Jun-12 07:26S 27°24' E 153°09'4 7.5
2018-Jun-12 06:55S 27°27' E 153°06'0 0.2
2018-Jun-12 05:34S 27°27' E 153°06'  

Dump ship's entire track history